createdAt,value
2022-09-15T00:02:22.252Z,45.53
2022-09-15T00:04:49.175Z,45.72
2022-09-15T00:07:16.106Z,46.47
2022-09-15T00:09:42.993Z,45.65
2022-09-15T00:12:10.083Z,45.63
2022-09-15T00:14:36.956Z,45.65
2022-09-15T00:17:05.637Z,45.45
2022-09-15T00:19:32.601Z,45.75
2022-09-15T00:21:59.407Z,45.75
2022-09-15T00:24:26.366Z,45.97
2022-09-15T00:26:53.364Z,45.60
2022-09-15T00:29:20.626Z,45.83
2022-09-15T00:31:47.426Z,45.90
2022-09-15T00:34:16.276Z,46.00
2022-09-15T00:36:43.076Z,46.58
2022-09-15T00:39:09.948Z,46.22
2022-09-15T00:41:39.102Z,45.95
2022-09-15T00:44:27.230Z,45.78
2022-09-15T00:47:15.645Z,45.95
2022-09-15T00:49:47.407Z,46.60
2022-09-15T00:54:46.698Z,45.50
2022-09-15T00:57:26.017Z,45.92
2022-09-15T00:59:55.909Z,46.13
2022-09-15T01:02:26.993Z,45.75
2022-09-15T01:04:58.552Z,45.88
2022-09-15T01:07:35.156Z,46.13
2022-09-15T01:10:06.366Z,46.10
2022-09-15T01:12:33.533Z,46.05
2022-09-15T01:15:01.116Z,46.47
2022-09-15T01:17:36.780Z,45.97
2022-09-15T01:20:34.091Z,46.22
2022-09-15T01:23:20.256Z,46.22
2022-09-15T01:26:13.759Z,45.97
2022-09-15T01:29:01.934Z,46.65
2022-09-15T01:31:37.108Z,46.65
2022-09-15T01:34:11.648Z,46.90
2022-09-15T01:36:45.149Z,47.25
2022-09-15T01:39:16.423Z,47.42
2022-09-15T01:41:47.319Z,46.35
2022-09-15T01:44:18.554Z,46.90
2022-09-15T01:46:50.324Z,46.75
2022-09-15T01:49:21.093Z,47.03
2022-09-15T01:51:50.854Z,47.33
2022-09-15T01:54:21.688Z,47.72
2022-09-15T01:56:48.526Z,47.75
2022-09-15T01:59:15.709Z,47.55
2022-09-15T02:01:51.674Z,47.45
2022-09-15T02:04:23.081Z,47.85
2022-09-15T02:06:55.657Z,47.13
2022-09-15T02:09:26.589Z,47.38
2022-09-15T02:12:02.552Z,46.95
2022-09-15T02:14:48.152Z,46.85
2022-09-15T02:17:19.624Z,46.92
2022-09-15T02:22:23.554Z,47.45
2022-09-15T02:24:57.088Z,47.55
2022-09-15T02:27:27.470Z,47.50
2022-09-15T02:29:59.072Z,48.15
2022-09-15T02:32:30.301Z,47.72
2022-09-15T02:35:03.215Z,48.13
2022-09-15T02:37:30.111Z,48.10
2022-09-15T02:39:58.895Z,47.92
2022-09-15T02:42:27.459Z,48.67
2022-09-15T02:44:54.369Z,48.53
2022-09-15T02:47:21.565Z,48.95
2022-09-15T02:49:49.807Z,48.65
2022-09-15T02:52:16.967Z,47.53
2022-09-15T02:54:43.742Z,49.03
2022-09-15T02:57:10.730Z,47.78
2022-09-15T02:59:56.127Z,48.85
2022-09-15T03:02:23.641Z,49.13
2022-09-15T03:04:51.832Z,48.25
2022-09-15T03:07:18.975Z,48.95
2022-09-15T03:09:46.587Z,48.30
2022-09-15T03:12:13.811Z,48.50
2022-09-15T03:14:40.579Z,49.38
2022-09-15T03:17:07.425Z,48.05
2022-09-15T03:19:34.232Z,48.40
2022-09-15T03:22:02.434Z,49.17
2022-09-15T03:24:29.432Z,48.53
2022-09-15T03:26:56.277Z,48.72
2022-09-15T03:29:23.426Z,48.90
2022-09-15T03:31:50.286Z,48.35
2022-09-15T03:34:17.242Z,48.53
2022-09-15T03:36:44.051Z,48.60
2022-09-15T03:39:13.104Z,48.22
2022-09-15T03:41:39.948Z,47.38
2022-09-15T03:44:07.127Z,48.55
2022-09-15T03:46:34.070Z,49.35
2022-09-15T03:49:00.894Z,50.47
2022-09-15T03:51:27.825Z,48.95
2022-09-15T03:53:55.626Z,50.00
2022-09-15T03:56:26.598Z,50.40
2022-09-15T03:58:54.410Z,49.45
2022-09-15T04:01:21.708Z,50.33
2022-09-15T04:03:51.318Z,50.25
2022-09-15T04:06:19.275Z,50.28
2022-09-15T04:08:46.201Z,49.95
2022-09-15T04:11:13.895Z,48.95
2022-09-15T04:13:42.351Z,48.83
2022-09-15T04:16:11.657Z,49.30
2022-09-15T04:18:38.779Z,49.72
2022-09-15T04:21:10.269Z,49.45
2022-09-15T04:26:05.906Z,49.75
2022-09-15T04:28:34.579Z,48.80
2022-09-15T04:31:08.699Z,49.50
2022-09-15T04:33:36.194Z,49.33
2022-09-15T04:36:06.609Z,48.03
2022-09-15T04:38:33.794Z,48.40
2022-09-15T04:41:01.048Z,49.45
2022-09-15T04:43:28.807Z,49.53
2022-09-15T04:45:55.881Z,48.55
2022-09-15T04:48:24.471Z,49.45
2022-09-15T04:50:51.926Z,49.85
2022-09-15T04:53:19.185Z,49.65
2022-09-15T04:55:46.067Z,48.35
2022-09-15T04:58:13.225Z,48.35
2022-09-15T05:00:43.592Z,48.40
2022-09-15T05:03:11.830Z,48.17
2022-09-15T05:05:40.710Z,49.22
2022-09-15T05:08:08.277Z,48.75
2022-09-15T05:10:35.423Z,48.63
2022-09-15T05:13:02.281Z,48.45
2022-09-15T05:15:29.121Z,48.53
2022-09-15T05:17:55.975Z,49.55
2022-09-15T05:20:22.864Z,49.45
2022-09-15T05:22:51.093Z,49.47
2022-09-15T05:25:18.000Z,49.38
2022-09-15T05:27:45.022Z,48.85
2022-09-15T05:32:59.395Z,48.25
2022-09-15T05:35:26.404Z,46.70
2022-09-15T05:37:54.628Z,46.42
2022-09-15T05:40:22.721Z,46.85
2022-09-15T05:42:49.608Z,46.50
2022-09-15T05:45:16.701Z,46.53
2022-09-15T05:47:43.611Z,46.13
2022-09-15T05:50:11.210Z,46.10
2022-09-15T05:52:38.216Z,46.70
2022-09-15T05:55:07.038Z,46.35
2022-09-15T05:57:33.853Z,45.80
2022-09-15T06:00:00.886Z,46.10
2022-09-15T06:02:27.745Z,46.15
2022-09-15T06:04:54.611Z,46.08
2022-09-15T06:07:21.474Z,46.35
2022-09-15T06:09:48.300Z,45.85
2022-09-15T06:12:18.016Z,46.25
2022-09-15T06:14:45.951Z,46.30
2022-09-15T06:17:12.820Z,46.10
2022-09-15T06:19:39.598Z,46.13
2022-09-15T06:22:06.528Z,46.08
2022-09-15T06:24:33.428Z,46.20
2022-09-15T06:27:00.908Z,46.10
2022-09-15T06:29:36.773Z,46.05
2022-09-15T06:32:05.193Z,46.25
2022-09-15T06:34:33.034Z,46.25
2022-09-15T06:37:00.183Z,46.40
2022-09-15T06:39:27.188Z,46.13
2022-09-15T06:42:02.389Z,46.15
2022-09-15T06:44:32.039Z,46.30
2022-09-15T06:46:58.992Z,46.33
2022-09-15T06:49:26.063Z,46.42
2022-09-15T06:51:52.986Z,46.53
2022-09-15T06:54:19.890Z,46.90
2022-09-15T06:56:47.338Z,46.92
2022-09-15T06:59:15.050Z,46.95
2022-09-15T07:01:43.357Z,46.80
2022-09-15T07:04:10.854Z,47.08
2022-09-15T07:06:39.731Z,46.85
2022-09-15T07:09:07.191Z,47.53
2022-09-15T07:11:34.366Z,47.50
2022-09-15T07:14:01.650Z,47.65
2022-09-15T07:16:28.700Z,47.85
2022-09-15T07:18:58.216Z,47.53
2022-09-15T07:21:25.159Z,47.65
2022-09-15T07:23:52.373Z,47.58
2022-09-15T07:26:21.593Z,48.95
2022-09-15T07:28:50.323Z,46.03
2022-09-15T07:31:19.117Z,45.53
2022-09-15T07:33:46.463Z,45.67
2022-09-15T07:36:15.434Z,45.65
2022-09-15T07:38:44.241Z,45.60
2022-09-15T07:41:13.979Z,46.25
2022-09-15T07:43:45.271Z,46.88
2022-09-15T07:46:12.292Z,47.00
2022-09-15T07:48:39.264Z,46.40
2022-09-15T07:51:06.579Z,46.63
2022-09-15T07:53:34.814Z,46.55
2022-09-15T07:56:02.003Z,46.45
2022-09-15T07:58:29.683Z,46.22
2022-09-15T08:01:01.878Z,46.60
2022-09-15T08:03:29.250Z,46.33
2022-09-15T08:05:58.287Z,46.08
2022-09-15T08:08:25.365Z,46.60
2022-09-15T08:10:53.783Z,46.88
2022-09-15T08:13:20.804Z,46.72
2022-09-15T08:15:47.908Z,46.30
2022-09-15T08:18:15.708Z,46.63
2022-09-15T08:20:43.630Z,46.35
2022-09-15T08:23:11.332Z,46.22
2022-09-15T08:25:39.207Z,45.95
2022-09-15T08:28:07.842Z,45.92
2022-09-15T08:30:35.409Z,45.75
2022-09-15T08:33:02.321Z,46.22
2022-09-15T08:35:30.092Z,46.05
2022-09-15T08:37:56.965Z,46.03
2022-09-15T08:40:34.768Z,46.15
2022-09-15T08:43:13.103Z,45.55
2022-09-15T08:45:47.790Z,46.60
2022-09-15T08:48:17.247Z,46.38
2022-09-15T08:50:46.656Z,46.20
2022-09-15T08:53:17.874Z,45.95
2022-09-15T08:55:49.855Z,46.22
2022-09-15T08:58:20.464Z,46.60
2022-09-15T09:00:51.768Z,45.90
2022-09-15T09:03:35.577Z,45.95
2022-09-15T09:06:12.417Z,46.45
2022-09-15T09:09:03.312Z,46.25
2022-09-15T09:11:42.964Z,45.53
2022-09-15T09:14:19.144Z,46.03
2022-09-15T09:17:02.919Z,46.38
2022-09-15T09:19:47.668Z,46.35
2022-09-15T09:22:20.000Z,45.80
2022-09-15T09:24:50.065Z,45.80
2022-09-15T09:27:21.432Z,46.22
2022-09-15T09:29:54.466Z,45.65
2022-09-15T09:32:25.303Z,46.42
2022-09-15T09:35:00.504Z,46.33
2022-09-15T09:37:27.992Z,46.08
2022-09-15T09:39:54.864Z,46.28
2022-09-15T09:42:27.657Z,46.72
2022-09-15T09:44:56.610Z,47.15
2022-09-15T09:47:27.603Z,49.33
2022-09-15T09:49:54.543Z,50.58
2022-09-15T09:52:34.143Z,50.13
2022-09-15T09:55:02.388Z,51.15
2022-09-15T09:57:31.144Z,50.78
2022-09-15T09:59:59.424Z,50.72
2022-09-15T10:02:28.116Z,50.38
2022-09-15T10:05:12.325Z,49.13
2022-09-15T10:07:43.715Z,49.22
2022-09-15T10:10:20.479Z,49.78
2022-09-15T10:12:48.429Z,49.53
2022-09-15T10:15:24.387Z,49.05
2022-09-15T10:17:52.814Z,49.30
2022-09-15T10:20:28.500Z,52.60
2022-09-15T10:23:04.096Z,51.00
2022-09-15T10:25:55.053Z,51.25
2022-09-15T10:28:23.769Z,51.10
2022-09-15T10:31:07.263Z,51.45
2022-09-15T10:33:36.383Z,49.75
2022-09-15T10:36:12.213Z,52.20
2022-09-15T10:38:42.975Z,57.47
2022-09-15T10:41:22.468Z,76.90
2022-09-15T10:44:10.728Z,51.05
2022-09-15T10:46:49.357Z,51.13
2022-09-15T10:49:33.538Z,53.53
2022-09-15T10:52:13.114Z,52.38
2022-09-15T10:54:54.597Z,53.63
2022-09-15T11:00:01.757Z,52.28
2022-09-15T11:03:08.047Z,51.92
2022-09-15T11:05:48.943Z,53.83
2022-09-15T11:08:31.956Z,53.88
2022-09-15T11:11:07.804Z,50.17
2022-09-15T11:13:50.320Z,50.50
2022-09-15T11:16:31.375Z,49.55
2022-09-15T11:19:14.939Z,50.10
2022-09-15T11:21:46.215Z,50.15
2022-09-15T11:27:00.892Z,51.83
2022-09-15T11:29:33.918Z,52.42
2022-09-15T11:32:05.659Z,51.92
2022-09-15T11:34:39.184Z,49.53
2022-09-15T11:37:12.173Z,49.83
2022-09-15T11:39:46.452Z,49.95
2022-09-15T11:42:20.001Z,49.47
2022-09-15T11:44:48.241Z,49.95
2022-09-15T11:47:24.645Z,49.72
2022-09-15T11:49:57.892Z,50.17
2022-09-15T11:52:49.629Z,49.00
2022-09-15T11:55:25.335Z,48.33
2022-09-15T11:57:59.890Z,48.35
2022-09-15T12:00:26.961Z,48.65
2022-09-15T12:03:06.029Z,48.45
2022-09-15T12:05:39.824Z,48.45
2022-09-15T12:08:15.358Z,48.95
2022-09-15T12:10:45.648Z,49.03
2022-09-15T12:13:16.875Z,48.65
2022-09-15T12:15:44.369Z,49.47
2022-09-15T12:18:37.770Z,50.22
2022-09-15T12:21:15.790Z,50.80
2022-09-15T12:23:51.042Z,51.10
2022-09-15T12:26:20.230Z,50.40
2022-09-15T12:28:58.396Z,50.35
2022-09-15T12:31:29.271Z,50.95
2022-09-15T12:33:58.650Z,49.88
2022-09-15T12:36:44.176Z,50.25
2022-09-15T12:39:27.980Z,50.47
2022-09-15T12:41:58.265Z,49.95
2022-09-15T12:44:32.764Z,49.58
2022-09-15T12:47:01.709Z,49.55
2022-09-15T12:49:31.714Z,50.15
2022-09-15T12:52:03.490Z,49.67
2022-09-15T12:54:33.152Z,50.30
2022-09-15T12:57:01.375Z,50.28
2022-09-15T12:59:29.161Z,50.63
2022-09-15T13:01:57.583Z,50.30
2022-09-15T13:04:52.858Z,50.55
2022-09-15T13:07:54.603Z,50.63
2022-09-15T13:10:31.227Z,50.50
2022-09-15T13:13:12.303Z,48.50
2022-09-15T13:15:46.849Z,48.63
2022-09-15T13:18:16.037Z,48.38
2022-09-15T13:20:53.734Z,48.83
2022-09-15T13:23:27.238Z,48.45
2022-09-15T13:25:57.914Z,48.90
2022-09-15T13:28:25.996Z,48.08
2022-09-15T13:31:34.417Z,48.40
2022-09-15T13:40:36.534Z,49.22
2022-09-15T13:43:28.882Z,49.13
2022-09-15T13:46:12.485Z,48.67
2022-09-15T13:48:50.180Z,48.72
2022-09-15T13:51:25.098Z,48.72
2022-09-15T13:53:56.608Z,48.42
2022-09-15T13:56:27.825Z,48.83
2022-09-15T13:59:05.391Z,48.75
2022-09-15T14:01:41.535Z,48.75
2022-09-15T14:04:13.397Z,48.65
2022-09-15T14:06:43.259Z,48.67
2022-09-15T14:09:15.634Z,49.35
2022-09-15T14:11:47.616Z,49.67
2022-09-15T14:14:35.178Z,49.60
2022-09-15T14:17:02.447Z,49.25
2022-09-15T14:19:33.806Z,49.75
2022-09-15T14:22:01.229Z,50.40
2022-09-15T14:24:30.144Z,49.25
2022-09-15T14:27:01.490Z,49.80
2022-09-15T14:29:28.383Z,49.22
2022-09-15T14:32:00.897Z,49.65
2022-09-15T14:34:31.812Z,48.90
2022-09-15T14:37:03.431Z,49.15
2022-09-15T14:39:31.325Z,49.25
2022-09-15T14:42:09.335Z,49.08
2022-09-15T14:47:27.870Z,49.35
2022-09-15T14:50:08.048Z,49.33
2022-09-15T14:52:39.456Z,49.15
2022-09-15T14:55:12.397Z,49.30
2022-09-15T14:57:45.984Z,49.33
2022-09-15T15:00:21.309Z,49.17
2022-09-15T15:03:02.454Z,49.13
2022-09-15T15:05:35.445Z,48.83
2022-09-15T15:08:06.905Z,49.00
2022-09-15T15:10:36.033Z,49.10
2022-09-15T15:13:09.125Z,48.75
2022-09-15T15:15:38.316Z,49.35
2022-09-15T15:18:07.413Z,49.08
2022-09-15T15:20:34.328Z,48.75
2022-09-15T15:23:13.827Z,48.65
2022-09-15T15:25:41.787Z,49.15
2022-09-15T15:28:30.051Z,49.15
2022-09-15T15:31:12.329Z,48.92
2022-09-15T15:33:46.537Z,49.05
2022-09-15T15:36:13.805Z,48.13
2022-09-15T15:38:47.008Z,49.15
2022-09-15T15:41:21.322Z,48.78
2022-09-15T15:44:03.157Z,48.85
2022-09-15T15:46:52.497Z,48.42
2022-09-15T15:49:21.318Z,48.22
2022-09-15T15:51:48.852Z,48.40
2022-09-15T15:54:15.790Z,49.03
2022-09-15T15:56:42.843Z,48.45
2022-09-15T15:59:12.946Z,48.03
2022-09-15T16:01:40.225Z,48.25
2022-09-15T16:04:08.103Z,48.38
2022-09-15T16:06:35.938Z,48.47
2022-09-15T16:09:04.906Z,48.15
2022-09-15T16:11:32.101Z,49.92
2022-09-15T16:13:59.221Z,50.45
2022-09-15T16:16:28.021Z,50.22
2022-09-15T16:18:54.919Z,51.22
2022-09-15T16:21:28.943Z,50.58
2022-09-15T16:23:55.838Z,50.05
2022-09-15T16:26:24.817Z,50.15
2022-09-15T16:28:52.470Z,50.53
2022-09-15T16:31:19.526Z,50.13
2022-09-15T16:33:47.820Z,49.90
2022-09-15T16:36:16.618Z,49.22
2022-09-15T16:38:44.181Z,49.42
2022-09-15T16:41:14.245Z,48.20
2022-09-15T16:43:41.373Z,48.58
2022-09-15T16:46:09.884Z,47.90
2022-09-15T16:48:36.970Z,47.63
2022-09-15T16:51:23.480Z,48.00
2022-09-15T16:53:54.530Z,48.00
2022-09-15T16:56:21.440Z,48.15
2022-09-15T16:58:48.342Z,48.78
2022-09-15T17:01:18.159Z,47.92
2022-09-15T17:03:45.461Z,48.33
2022-09-15T17:06:14.850Z,48.95
2022-09-15T17:08:42.111Z,57.22
2022-09-15T17:11:16.246Z,77.63
2022-09-15T17:13:44.697Z,61.90
2022-09-15T17:16:13.946Z,53.00
2022-09-15T17:18:40.823Z,52.92
2022-09-15T17:21:10.191Z,60.42
2022-09-15T17:23:40.383Z,76.22
2022-09-15T17:26:11.521Z,61.25
2022-09-15T17:28:38.493Z,50.75
2022-09-15T17:31:11.327Z,69.53
2022-09-15T17:33:38.334Z,50.08
2022-09-15T17:36:05.434Z,50.20
2022-09-15T17:38:32.847Z,53.83
2022-09-15T17:41:01.328Z,58.25
2022-09-15T17:43:29.909Z,58.92
2022-09-15T17:45:57.484Z,53.65
2022-09-15T17:48:25.103Z,52.15
2022-09-15T17:50:52.537Z,58.05
2022-09-15T17:53:21.444Z,58.25
2022-09-15T17:55:49.046Z,66.15
2022-09-15T17:58:18.130Z,56.88
2022-09-15T18:00:45.900Z,56.83
2022-09-15T18:03:21.128Z,76.60
2022-09-15T18:05:48.494Z,46.22
2022-09-15T18:08:16.497Z,46.08
2022-09-15T18:10:43.842Z,45.70
2022-09-15T18:13:14.591Z,45.70
2022-09-15T18:15:43.368Z,33.22
2022-09-15T18:18:13.649Z,46.22
2022-09-15T18:20:40.628Z,45.47
2022-09-15T18:23:12.852Z,44.90
2022-09-15T18:25:39.852Z,46.47
2022-09-15T18:28:06.784Z,45.78
2022-09-15T18:30:37.146Z,45.95
2022-09-15T18:33:05.514Z,45.63
2022-09-15T18:35:32.418Z,45.72
2022-09-15T18:38:00.109Z,45.72
2022-09-15T18:40:27.702Z,45.63
2022-09-15T18:42:56.612Z,45.97
2022-09-15T18:45:23.753Z,46.45
2022-09-15T18:47:52.321Z,45.53
2022-09-15T18:50:23.310Z,45.70
2022-09-15T18:52:50.794Z,45.67
2022-09-15T18:55:21.084Z,45.35
2022-09-15T18:57:48.434Z,45.53
2022-09-15T19:00:17.430Z,45.47
2022-09-15T19:02:44.488Z,45.35
2022-09-15T19:05:12.309Z,45.38
2022-09-15T19:07:40.561Z,45.35
2022-09-15T19:10:08.334Z,46.38
2022-09-15T19:12:35.308Z,45.40
2022-09-15T19:15:02.238Z,45.40
2022-09-15T19:17:29.089Z,45.60
2022-09-15T19:19:55.868Z,45.35
2022-09-15T19:22:22.725Z,45.33
2022-09-15T19:24:50.992Z,45.35
2022-09-15T19:27:17.871Z,45.58
2022-09-15T19:29:44.752Z,45.33
2022-09-15T19:32:14.352Z,44.90
2022-09-15T19:34:42.148Z,45.30
2022-09-15T19:37:13.074Z,45.35
2022-09-15T19:39:42.187Z,45.78
2022-09-15T19:42:11.207Z,45.13
2022-09-15T19:44:38.327Z,45.17
2022-09-15T19:47:05.169Z,45.17
2022-09-15T19:49:32.098Z,46.80
2022-09-15T19:51:58.900Z,46.45
2022-09-15T19:54:28.607Z,47.20
2022-09-15T19:56:56.380Z,45.67
2022-09-15T19:59:30.191Z,45.58
2022-09-15T20:01:58.310Z,46.53
2022-09-15T20:07:09.697Z,45.25
2022-09-15T20:09:36.482Z,45.13
2022-09-15T20:12:03.647Z,45.55
2022-09-15T20:14:31.806Z,45.88
2022-09-15T20:17:01.164Z,45.97
2022-09-15T20:19:28.532Z,46.38
2022-09-15T20:21:55.314Z,46.53
2022-09-15T20:24:23.584Z,47.17
2022-09-15T20:26:50.595Z,46.67
2022-09-15T20:29:18.503Z,47.00
2022-09-15T20:31:47.611Z,46.85
2022-09-15T20:34:14.965Z,46.92
2022-09-15T20:36:41.862Z,47.42
2022-09-15T20:39:13.035Z,49.03
2022-09-15T20:41:41.325Z,49.20
2022-09-15T20:44:09.504Z,46.90
2022-09-15T20:46:37.111Z,47.25
2022-09-15T20:49:05.779Z,47.05
2022-09-15T20:51:33.788Z,47.25
2022-09-15T20:54:03.546Z,47.70
2022-09-15T20:56:32.573Z,47.55
2022-09-15T20:59:00.130Z,47.53
2022-09-15T21:01:28.991Z,47.42
2022-09-15T21:03:56.077Z,47.20
2022-09-15T21:06:27.882Z,47.55
2022-09-15T21:08:56.631Z,46.50
2022-09-15T21:11:29.138Z,47.47
2022-09-15T21:13:57.240Z,46.72
2022-09-15T21:16:26.450Z,47.42
2022-09-15T21:18:53.834Z,47.30
2022-09-15T21:21:22.684Z,47.47
2022-09-15T21:23:53.411Z,47.55
2022-09-15T21:26:22.783Z,48.15
2022-09-15T21:28:49.933Z,47.53
2022-09-15T21:31:18.993Z,47.15
2022-09-15T21:33:47.675Z,48.10
2022-09-15T21:36:23.327Z,50.22
2022-09-15T21:38:53.424Z,49.67
2022-09-15T21:41:22.226Z,50.33
2022-09-15T21:43:54.742Z,50.90
2022-09-15T21:46:23.857Z,50.53
2022-09-15T21:48:50.883Z,50.45
2022-09-15T21:51:24.267Z,47.85
2022-09-15T21:53:53.682Z,47.55
2022-09-15T21:56:21.530Z,50.03
2022-09-15T21:58:48.637Z,48.88
2022-09-15T22:01:18.936Z,49.08
2022-09-15T22:03:49.456Z,49.15
2022-09-15T22:06:16.861Z,48.53
2022-09-15T22:09:40.073Z,49.63
2022-09-15T22:12:20.504Z,47.00
2022-09-15T22:14:47.382Z,47.05
2022-09-15T22:17:14.175Z,47.22
2022-09-15T22:19:40.999Z,47.15
2022-09-15T22:22:07.994Z,46.78
2022-09-15T22:24:34.916Z,46.70
2022-09-15T22:27:01.676Z,46.65
2022-09-15T22:29:29.870Z,46.35
2022-09-15T22:31:56.683Z,46.95
2022-09-15T22:34:23.547Z,47.00
2022-09-15T22:36:50.302Z,46.45
2022-09-15T22:39:17.497Z,47.47
2022-09-15T22:41:44.263Z,48.08
2022-09-15T22:44:18.946Z,47.25
2022-09-15T22:46:49.698Z,46.28
2022-09-15T22:49:16.569Z,46.65
2022-09-15T22:51:43.423Z,46.40
2022-09-15T22:54:10.262Z,46.42
2022-09-15T22:56:37.179Z,46.55
2022-09-15T22:59:03.996Z,46.55
2022-09-15T23:01:31.152Z,45.97
2022-09-15T23:04:02.308Z,47.40
2022-09-15T23:06:31.260Z,48.75
2022-09-15T23:09:00.347Z,49.15
2022-09-15T23:11:28.919Z,47.55
2022-09-15T23:13:56.444Z,48.08
2022-09-15T23:16:24.525Z,47.42
2022-09-15T23:18:51.934Z,46.72
2022-09-15T23:21:20.547Z,47.78
2022-09-15T23:23:48.960Z,47.13
2022-09-15T23:26:17.647Z,47.25
2022-09-15T23:28:44.694Z,46.85
2022-09-15T23:31:12.926Z,46.83
2022-09-15T23:33:40.365Z,46.28
2022-09-15T23:36:09.964Z,46.65
2022-09-15T23:38:39.980Z,47.67
2022-09-15T23:41:08.191Z,46.50
2022-09-15T23:43:35.485Z,46.67
2022-09-15T23:46:03.186Z,47.47
2022-09-15T23:48:31.692Z,47.70
2022-09-15T23:50:58.714Z,46.17
2022-09-15T23:53:25.610Z,45.92
2022-09-15T23:55:53.828Z,46.25
2022-09-15T23:58:20.578Z,46.35
